If you wish to contribute or participate in the discussions about articles you are invited to join SKYbrary as a registered user

 Actions

Lille-Lesquin Airport

From SKYbrary Wiki

LFQQ
Airport
ICAO: LFQQ – IATA: LIL
Summary
Name Lille-Lesquin Airport
Region Europe
Territory France FR.gif
Location , Nord-Pas-de-Calais
Serving Lille
Elevation 47.854 m
157 ft
157 ft47.854 m
Type medium airport
Coordinates 50° 33' 42.99" N, 3° 5' 22.00" E
Runways
Designator Length Width Surface ROPS
2/20 1580 m5,183.727 ft
30 m98.425 ft
ASP yes/yes
8/26 2825 m9,268.373 ft
45 m147.638 ft
ASP yes/yes


METAR
Observation LFQQ 161400Z AUTO 14007KT 110V180 9999 FEW040 16/06 Q1014 NOSIG
Station Lille
Date/Time 16 April 2019 14:00:00
Wind direction 140°
Wind speed 07 kts
Lowest cloud amount few clouds
Temperature 16°C
Dew point 6°C
Humidity 51%
QNH 1014 hPa
Weather condition n/a